sensor_id;sensor_type;location;lat;lon;timestamp;pressure;altitude;pressure_sealevel;temperature;humidity
54808;BME280;40708;50.364;7.550;2022-07-03T00:01:53;100564.34;;;17.59;100.00
54808;BME280;40708;50.364;7.550;2022-07-03T00:04:18;100568.06;;;17.55;100.00
54808;BME280;40708;50.364;7.550;2022-07-03T00:06:45;100562.81;;;17.49;100.00
54808;BME280;40708;50.364;7.550;2022-07-03T00:09:11;100570.09;;;17.44;100.00
54808;BME280;40708;50.364;7.550;2022-07-03T00:11:37;100573.75;;;17.42;100.00
54808;BME280;40708;50.364;7.550;2022-07-03T00:14:02;100576.50;;;17.37;100.00
54808;BME280;40708;50.364;7.550;2022-07-03T00:16:28;100577.59;;;17.30;100.00
54808;BME280;40708;50.364;7.550;2022-07-03T00:18:53;100575.06;;;17.24;100.00
54808;BME280;40708;50.364;7.550;2022-07-03T00:21:23;100569.06;;;17.14;100.00
54808;BME280;40708;50.364;7.550;2022-07-03T00:24:02;100575.47;;;17.07;100.00
54808;BME280;40708;50.364;7.550;2022-07-03T00:26:30;100577.44;;;17.01;100.00
54808;BME280;40708;50.364;7.550;2022-07-03T00:28:59;100578.47;;;16.94;100.00
54808;BME280;40708;50.364;7.550;2022-07-03T00:31:25;100569.78;;;16.84;100.00
54808;BME280;40708;50.364;7.550;2022-07-03T00:33:56;100565.44;;;16.79;100.00
54808;BME280;40708;50.364;7.550;2022-07-03T00:36:23;100568.13;;;16.77;100.00
54808;BME280;40708;50.364;7.550;2022-07-03T00:38:49;100567.28;;;16.77;100.00
54808;BME280;40708;50.364;7.550;2022-07-03T00:41:33;100562.94;;;16.71;100.00
54808;BME280;40708;50.364;7.550;2022-07-03T00:43:59;100563.91;;;16.67;100.00
54808;BME280;40708;50.364;7.550;2022-07-03T00:46:26;100552.44;;;16.60;100.00
54808;BME280;40708;50.364;7.550;2022-07-03T00:48:53;100545.41;;;16.56;100.00
54808;BME280;40708;50.364;7.550;2022-07-03T00:51:24;100542.03;;;16.47;100.00
54808;BME280;40708;50.364;7.550;2022-07-03T00:53:52;100541.22;;;16.42;100.00
54808;BME280;40708;50.364;7.550;2022-07-03T00:56:21;100541.41;;;16.34;100.00
54808;BME280;40708;50.364;7.550;2022-07-03T00:58:50;100538.91;;;16.27;100.00
54808;BME280;40708;50.364;7.550;2022-07-03T01:01:18;100542.53;;;16.23;100.00
54808;BME280;40708;50.364;7.550;2022-07-03T01:03:44;100539.97;;;16.18;100.00
54808;BME280;40708;50.364;7.550;2022-07-03T01:06:13;100539.97;;;16.18;100.00
54808;BME280;40708;50.364;7.550;2022-07-03T01:08:54;100538.22;;;16.16;100.00
54808;BME280;40708;50.364;7.550;2022-07-03T01:11:48;100543.63;;;16.14;100.00
54808;BME280;40708;50.364;7.550;2022-07-03T01:14:44;100540.97;;;16.14;100.00
54808;BME280;40708;50.364;7.550;2022-07-03T01:17:24;100541.06;;;16.08;100.00
54808;BME280;40708;50.364;7.550;2022-07-03T01:19:59;100540.22;;;16.06;100.00
54808;BME280;40708;50.364;7.550;2022-07-03T01:22:54;100544.81;;;15.99;100.00
54808;BME280;40708;50.364;7.550;2022-07-03T01:25:26;100544.91;;;15.95;100.00
54808;BME280;40708;50.364;7.550;2022-07-03T01:28:14;100539.63;;;15.90;100.00
54808;BME280;40708;50.364;7.550;2022-07-03T01:33:27;100550.50;;;15.83;100.00
54808;BME280;40708;50.364;7.550;2022-07-03T01:38:28;100556.94;;;15.73;100.00
54808;BME280;40708;50.364;7.550;2022-07-03T01:40:55;100551.66;;;15.68;100.00
54808;BME280;40708;50.364;7.550;2022-07-03T01:43:26;100551.78;;;15.62;100.00
54808;BME280;40708;50.364;7.550;2022-07-03T01:45:53;100547.44;;;15.55;100.00
54808;BME280;40708;50.364;7.550;2022-07-03T01:48:22;100552.84;;;15.52;100.00
54808;BME280;40708;50.364;7.550;2022-07-03T01:50:48;100558.13;;;15.57;100.00
54808;BME280;40708;50.364;7.550;2022-07-03T01:53:16;100550.22;;;15.51;100.00
54808;BME280;40708;50.364;7.550;2022-07-03T01:55:41;100540.41;;;15.51;100.00
54808;BME280;40708;50.364;7.550;2022-07-03T01:58:08;100533.31;;;15.47;100.00
54808;BME280;40708;50.364;7.550;2022-07-03T02:00:46;100535.06;;;15.49;100.00
54808;BME280;40708;50.364;7.550;2022-07-03T02:03:18;100543.13;;;15.46;100.00
54808;BME280;40708;50.364;7.550;2022-07-03T02:05:46;100537.84;;;15.42;100.00
54808;BME280;40708;50.364;7.550;2022-07-03T02:13:51;100530.16;;;15.24;100.00
54808;BME280;40708;50.364;7.550;2022-07-03T02:16:20;100531.09;;;15.20;100.00
54808;BME280;40708;50.364;7.550;2022-07-03T02:18:54;100532.97;;;15.16;100.00
54808;BME280;40708;50.364;7.550;2022-07-03T02:21:21;100536.59;;;15.12;100.00
54808;BME280;40708;50.364;7.550;2022-07-03T02:26:32;100543.88;;;15.01;100.00
54808;BME280;40708;50.364;7.550;2022-07-03T02:29:04;100537.75;;;14.96;100.00
54808;BME280;40708;50.364;7.550;2022-07-03T02:31:38;100546.78;;;14.89;100.00
54808;BME280;40708;50.364;7.550;2022-07-03T02:34:07;100553.09;;;14.82;100.00
54808;BME280;40708;50.364;7.550;2022-07-03T02:36:34;100548.69;;;14.81;100.00
54808;BME280;40708;50.364;7.550;2022-07-03T02:39:01;100554.97;;;14.77;100.00
54808;BME280;40708;50.364;7.550;2022-07-03T02:41:42;100551.28;;;14.85;100.00
54808;BME280;40708;50.364;7.550;2022-07-03T02:44:31;100553.13;;;14.80;100.00
54808;BME280;40708;50.364;7.550;2022-07-03T02:48:02;100556.78;;;14.73;100.00
54808;BME280;40708;50.364;7.550;2022-07-03T02:50:11;100557.75;;;14.68;100.00
54808;BME280;40708;50.364;7.550;2022-07-03T03:03:29;100563.41;;;14.48;100.00
54808;BME280;40708;50.364;7.550;2022-07-03T03:05:58;100570.50;;;14.46;100.00
54808;BME280;40708;50.364;7.550;2022-07-03T03:08:47;100560.81;;;14.42;100.00
54808;BME280;40708;50.364;7.550;2022-07-03T03:11:25;100575.84;;;14.46;100.00
54808;BME280;40708;50.364;7.550;2022-07-03T03:13:55;100561.59;;;14.49;100.00
54808;BME280;40708;50.364;7.550;2022-07-03T03:16:22;100566.03;;;14.50;100.00
54808;BME280;40708;50.364;7.550;2022-07-03T03:18:47;100566.06;;;14.48;100.00
54808;BME280;40708;50.364;7.550;2022-07-03T03:21:17;100559.03;;;14.43;100.00
54808;BME280;40708;50.364;7.550;2022-07-03T03:23:48;100567.97;;;14.40;100.00
54808;BME280;40708;50.364;7.550;2022-07-03T03:26:21;100566.13;;;14.41;100.00
54808;BME280;40708;50.364;7.550;2022-07-03T03:28:48;100562.63;;;14.40;100.00
54808;BME280;40708;50.364;7.550;2022-07-03T03:31:14;100567.84;;;14.46;100.00
54808;BME280;40708;50.364;7.550;2022-07-03T03:33:45;100574.16;;;14.42;100.00
54808;BME280;40708;50.364;7.550;2022-07-03T03:36:13;100576.78;;;14.44;100.00
54808;BME280;40708;50.364;7.550;2022-07-03T03:38:39;100585.56;;;14.52;100.00
54808;BME280;40708;50.364;7.550;2022-07-03T03:41:05;100584.41;;;14.71;100.00
54808;BME280;40708;50.364;7.550;2022-07-03T03:43:31;100590.31;;;14.93;100.00
54808;BME280;40708;50.364;7.550;2022-07-03T03:45:58;100595.41;;;15.09;100.00
54808;BME280;40708;50.364;7.550;2022-07-03T03:48:25;100587.00;;;15.35;100.00
54808;BME280;40708;50.364;7.550;2022-07-03T03:50:51;100578.41;;;15.68;100.00
54808;BME280;40708;50.364;7.550;2022-07-03T03:53:17;100581.38;;;15.99;100.00
54808;BME280;40708;50.364;7.550;2022-07-03T03:55:54;100575.94;;;16.05;100.00
54808;BME280;40708;50.364;7.550;2022-07-03T03:58:19;100581.34;;;16.45;100.00
54808;BME280;40708;50.364;7.550;2022-07-03T04:00:44;100575.34;;;16.75;100.00
54808;BME280;40708;50.364;7.550;2022-07-03T04:03:10;100572.59;;;17.15;100.00
54808;BME280;40708;50.364;7.550;2022-07-03T04:05:35;100566.41;;;17.48;100.00
54808;BME280;40708;50.364;7.550;2022-07-03T04:08:00;100568.16;;;17.84;100.00
54808;BME280;40708;50.364;7.550;2022-07-03T04:10:26;100556.91;;;18.33;100.00
54808;BME280;40708;50.364;7.550;2022-07-03T04:12:51;100543.31;;;18.69;100.00
54808;BME280;40708;50.364;7.550;2022-07-03T04:15:16;100555.72;;;19.00;100.00
54808;BME280;40708;50.364;7.550;2022-07-03T04:17:42;100547.94;;;19.19;100.00
54808;BME280;40708;50.364;7.550;2022-07-03T04:20:08;100544.94;;;19.56;100.00
54808;BME280;40708;50.364;7.550;2022-07-03T04:22:33;100542.28;;;20.04;100.00
54808;BME280;40708;50.364;7.550;2022-07-03T04:24:58;100537.84;;;20.28;100.00
54808;BME280;40708;50.364;7.550;2022-07-03T04:27:24;100538.88;;;20.24;100.00
54808;BME280;40708;50.364;7.550;2022-07-03T04:29:49;100540.84;;;20.88;100.00
54808;BME280;40708;50.364;7.550;2022-07-03T04:32:14;100533.03;;;21.25;100.00
54808;BME280;40708;50.364;7.550;2022-07-03T04:34:40;100528.09;;;21.57;100.00
54808;BME280;40708;50.364;7.550;2022-07-03T04:37:05;100528.88;;;22.01;100.00
54808;BME280;40708;50.364;7.550;2022-07-03T04:39:30;100527.53;;;22.29;100.00
54808;BME280;40708;50.364;7.550;2022-07-03T04:41:56;100528.63;;;22.83;100.00
54808;BME280;40708;50.364;7.550;2022-07-03T04:44:21;100529.13;;;23.27;100.00
54808;BME280;40708;50.364;7.550;2022-07-03T04:46:47;100535.03;;;23.53;100.00
54808;BME280;40708;50.364;7.550;2022-07-03T04:49:12;100536.19;;;24.16;100.00
54808;BME280;40708;50.364;7.550;2022-07-03T04:51:37;100541.97;;;24.10;100.00
54808;BME280;40708;50.364;7.550;2022-07-03T04:54:03;100542.97;;;23.74;100.00
54808;BME280;40708;50.364;7.550;2022-07-03T04:56:28;100540.13;;;23.94;100.00
54808;BME280;40708;50.364;7.550;2022-07-03T04:58:53;100550.06;;;23.42;100.00
54808;BME280;40708;50.364;7.550;2022-07-03T05:01:18;100543.44;;;23.47;100.00
54808;BME280;40708;50.364;7.550;2022-07-03T05:03:44;100551.81;;;23.60;100.00
54808;BME280;40708;50.364;7.550;2022-07-03T05:06:09;100553.56;;;23.78;100.00
54808;BME280;40708;50.364;7.550;2022-07-03T05:08:34;100557.16;;;23.96;100.00
54808;BME280;40708;50.364;7.550;2022-07-03T05:11:00;100563.59;;;23.42;100.00
54808;BME280;40708;50.364;7.550;2022-07-03T05:13:25;100568.16;;;23.04;100.00
54808;BME280;40708;50.364;7.550;2022-07-03T05:15:51;100565.50;;;22.46;100.00
54808;BME280;40708;50.364;7.550;2022-07-03T05:18:16;100556.78;;;22.59;100.00
54808;BME280;40708;50.364;7.550;2022-07-03T05:20:41;100563.56;;;23.06;100.00
54808;BME280;40708;50.364;7.550;2022-07-03T05:23:07;100557.69;;;23.51;100.00
54808;BME280;40708;50.364;7.550;2022-07-03T05:25:32;100557.94;;;23.46;100.00
54808;BME280;40708;50.364;7.550;2022-07-03T05:27:58;100556.69;;;24.05;100.00
54808;BME280;40708;50.364;7.550;2022-07-03T05:30:24;100557.72;;;24.68;100.00
54808;BME280;40708;50.364;7.550;2022-07-03T05:32:52;100559.47;;;25.02;100.00
54808;BME280;40708;50.364;7.550;2022-07-03T05:35:17;100559.56;;;25.16;100.00
54808;BME280;40708;50.364;7.550;2022-07-03T05:37:43;100563.06;;;24.87;100.00
54808;BME280;40708;50.364;7.550;2022-07-03T05:40:08;100566.97;;;25.43;100.00
54808;BME280;40708;50.364;7.550;2022-07-03T05:42:34;100558.47;;;25.79;100.00
54808;BME280;40708;50.364;7.550;2022-07-03T05:45:00;100552.34;;;26.06;100.00
54808;BME280;40708;50.364;7.550;2022-07-03T05:47:26;100549.72;;;26.04;100.00
54808;BME280;40708;50.364;7.550;2022-07-03T05:49:52;100551.97;;;26.12;100.00
54808;BME280;40708;50.364;7.550;2022-07-03T05:52:18;100561.19;;;26.09;100.00
54808;BME280;40708;50.364;7.550;2022-07-03T05:54:43;100567.28;;;24.92;100.00
54808;BME280;40708;50.364;7.550;2022-07-03T05:57:08;100559.25;;;25.36;100.00
54808;BME280;40708;50.364;7.550;2022-07-03T05:59:34;100557.03;;;26.03;100.00
54808;BME280;40708;50.364;7.550;2022-07-03T06:01:59;100555.91;;;26.22;100.00
54808;BME280;40708;50.364;7.550;2022-07-03T06:04:25;100561.06;;;26.69;100.00
54808;BME280;40708;50.364;7.550;2022-07-03T06:06:50;100564.25;;;27.03;100.00
54808;BME280;40708;50.364;7.550;2022-07-03T06:09:15;100556.66;;;27.49;100.00
54808;BME280;40708;50.364;7.550;2022-07-03T06:11:41;100562.28;;;27.73;100.00
54808;BME280;40708;50.364;7.550;2022-07-03T06:14:06;100560.97;;;28.18;100.00
54808;BME280;40708;50.364;7.550;2022-07-03T06:16:31;100557.63;;;27.88;100.00
54808;BME280;40708;50.364;7.550;2022-07-03T06:18:58;100557.09;;;27.95;100.00
54808;BME280;40708;50.364;7.550;2022-07-03T06:21:23;100569.91;;;26.86;100.00
54808;BME280;40708;50.364;7.550;2022-07-03T06:23:49;100567.75;;;27.46;100.00
54808;BME280;40708;50.364;7.550;2022-07-03T06:26:14;100568.75;;;27.97;100.00
54808;BME280;40708;50.364;7.550;2022-07-03T06:28:40;100567.22;;;27.54;100.00
54808;BME280;40708;50.364;7.550;2022-07-03T06:31:06;100566.47;;;27.11;100.00
54808;BME280;40708;50.364;7.550;2022-07-03T06:33:31;100568.44;;;27.50;100.00
54808;BME280;40708;50.364;7.550;2022-07-03T06:35:57;100567.44;;;27.90;100.00
54808;BME280;40708;50.364;7.550;2022-07-03T06:38:22;100569.50;;;27.74;100.00
54808;BME280;40708;50.364;7.550;2022-07-03T06:40:47;100565.50;;;27.53;100.00
54808;BME280;40708;50.364;7.550;2022-07-03T06:43:13;100564.13;;;28.12;100.00
54808;BME280;40708;50.364;7.550;2022-07-03T06:45:38;100557.16;;;28.20;100.00
54808;BME280;40708;50.364;7.550;2022-07-03T06:48:03;100561.53;;;28.48;100.00
54808;BME280;40708;50.364;7.550;2022-07-03T06:50:29;100552.41;;;27.97;100.00
54808;BME280;40708;50.364;7.550;2022-07-03T06:52:54;100558.38;;;28.29;100.00
54808;BME280;40708;50.364;7.550;2022-07-03T06:55:19;100559.09;;;28.94;100.00
54808;BME280;40708;50.364;7.550;2022-07-03T06:57:45;100563.28;;;28.37;100.00
54808;BME280;40708;50.364;7.550;2022-07-03T07:00:11;100557.16;;;28.58;100.00
54808;BME280;40708;50.364;7.550;2022-07-03T07:02:36;100542.72;;;29.54;100.00
54808;BME280;40708;50.364;7.550;2022-07-03T07:05:02;100546.53;;;29.28;100.00
54808;BME280;40708;50.364;7.550;2022-07-03T07:07:27;100558.44;;;28.90;100.00
54808;BME280;40708;50.364;7.550;2022-07-03T07:09:53;100556.91;;;28.99;100.00
54808;BME280;40708;50.364;7.550;2022-07-03T07:12:18;100547.47;;;29.39;100.00
54808;BME280;40708;50.364;7.550;2022-07-03T07:14:44;100546.59;;;29.63;100.00
54808;BME280;40708;50.364;7.550;2022-07-03T07:17:09;100540.94;;;30.12;100.00
54808;BME280;40708;50.364;7.550;2022-07-03T07:19:34;100546.13;;;29.69;100.00
54808;BME280;40708;50.364;7.550;2022-07-03T07:22:00;100544.28;;;29.45;100.00
54808;BME280;40708;50.364;7.550;2022-07-03T07:24:27;100540.78;;;29.43;100.00
54808;BME280;40708;50.364;7.550;2022-07-03T07:26:52;100545.72;;;30.32;100.00
54808;BME280;40708;50.364;7.550;2022-07-03T07:29:17;100539.53;;;30.74;100.00
54808;BME280;40708;50.364;7.550;2022-07-03T07:31:43;100541.72;;;30.14;100.00
54808;BME280;40708;50.364;7.550;2022-07-03T07:34:08;100547.38;;;29.65;100.00
54808;BME280;40708;50.364;7.550;2022-07-03T07:36:33;100548.44;;;30.32;100.00
54808;BME280;40708;50.364;7.550;2022-07-03T07:38:59;100543.63;;;30.91;100.00
54808;BME280;40708;50.364;7.550;2022-07-03T07:41:25;100538.56;;;30.97;100.00
54808;BME280;40708;50.364;7.550;2022-07-03T07:43:50;100534.91;;;30.30;100.00
54808;BME280;40708;50.364;7.550;2022-07-03T07:46:15;100538.13;;;31.24;100.00
54808;BME280;40708;50.364;7.550;2022-07-03T07:48:41;100534.78;;;32.16;92.91
54808;BME280;40708;50.364;7.550;2022-07-03T07:51:06;100537.59;;;32.25;91.76
54808;BME280;40708;50.364;7.550;2022-07-03T07:53:31;100536.59;;;32.06;92.24
54808;BME280;40708;50.364;7.550;2022-07-03T07:55:57;100538.00;;;31.68;92.62
54808;BME280;40708;50.364;7.550;2022-07-03T07:58:22;100539.66;;;32.54;90.61
54808;BME280;40708;50.364;7.550;2022-07-03T08:00:48;100537.91;;;32.32;89.09
54808;BME280;40708;50.364;7.550;2022-07-03T08:03:32;100531.41;;;32.54;88.03
54808;BME280;40708;50.364;7.550;2022-07-03T08:06:17;100533.53;;;32.50;86.14
54808;BME280;40708;50.364;7.550;2022-07-03T08:08:43;100529.69;;;31.91;89.02
54808;BME280;40708;50.364;7.550;2022-07-03T08:11:08;100532.88;;;31.96;89.77
54808;BME280;40708;50.364;7.550;2022-07-03T08:13:33;100526.50;;;32.06;89.47
54808;BME280;40708;50.364;7.550;2022-07-03T08:15:59;100518.00;;;31.77;92.27
54808;BME280;40708;50.364;7.550;2022-07-03T08:18:25;100516.66;;;32.04;89.43
54808;BME280;40708;50.364;7.550;2022-07-03T08:20:50;100530.31;;;31.62;94.37
54808;BME280;40708;50.364;7.550;2022-07-03T08:23:15;100518.19;;;31.22;93.53
54808;BME280;40708;50.364;7.550;2022-07-03T08:25:41;100513.00;;;31.83;91.15
54808;BME280;40708;50.364;7.550;2022-07-03T08:28:06;100522.78;;;31.33;90.47
54808;BME280;40708;50.364;7.550;2022-07-03T08:30:33;100520.16;;;32.36;87.11
54808;BME280;40708;50.364;7.550;2022-07-03T08:32:59;100518.06;;;31.66;85.65
54808;BME280;40708;50.364;7.550;2022-07-03T08:35:25;100520.56;;;31.58;86.83
54808;BME280;40708;50.364;7.550;2022-07-03T08:37:51;100517.31;;;32.17;83.37
54808;BME280;40708;50.364;7.550;2022-07-03T08:40:18;100520.31;;;32.55;78.34
54808;BME280;40708;50.364;7.550;2022-07-03T08:42:46;100508.41;;;32.04;79.05
54808;BME280;40708;50.364;7.550;2022-07-03T08:45:17;100507.53;;;31.40;84.80
54808;BME280;40708;50.364;7.550;2022-07-03T08:47:44;100508.47;;;32.34;82.85
54808;BME280;40708;50.364;7.550;2022-07-03T08:50:14;100510.06;;;32.36;79.29
54808;BME280;40708;50.364;7.550;2022-07-03T08:52:41;100510.16;;;31.52;79.47
54808;BME280;40708;50.364;7.550;2022-07-03T08:55:08;100506.28;;;31.44;79.89
54808;BME280;40708;50.364;7.550;2022-07-03T08:57:36;100511.50;;;31.58;80.92
54808;BME280;40708;50.364;7.550;2022-07-03T09:00:04;100507.00;;;32.60;70.85
54808;BME280;40708;50.364;7.550;2022-07-03T09:02:31;100503.13;;;32.72;70.85
54808;BME280;40708;50.364;7.550;2022-07-03T09:04:58;100502.78;;;32.56;71.52
54808;BME280;40708;50.364;7.550;2022-07-03T09:07:26;100501.81;;;32.36;74.77
54808;BME280;40708;50.364;7.550;2022-07-03T09:09:52;100504.00;;;31.60;75.51
54808;BME280;40708;50.364;7.550;2022-07-03T09:12:19;100499.47;;;32.32;71.15
54808;BME280;40708;50.364;7.550;2022-07-03T09:14:44;100498.69;;;32.71;66.51
54808;BME280;40708;50.364;7.550;2022-07-03T09:17:10;100497.53;;;32.74;66.68
54808;BME280;40708;50.364;7.550;2022-07-03T09:22:19;100489.28;;;32.83;66.29
54808;BME280;40708;50.364;7.550;2022-07-03T09:24:46;100495.56;;;32.55;67.46
54808;BME280;40708;50.364;7.550;2022-07-03T09:27:16;100499.94;;;32.58;68.28
54808;BME280;40708;50.364;7.550;2022-07-03T09:29:58;100493.25;;;32.90;63.33
54808;BME280;40708;50.364;7.550;2022-07-03T09:32:24;100497.69;;;32.52;65.46
54808;BME280;40708;50.364;7.550;2022-07-03T09:35:09;100497.56;;;32.23;66.92
54808;BME280;40708;50.364;7.550;2022-07-03T09:37:34;100491.06;;;31.83;69.19
54808;BME280;40708;50.364;7.550;2022-07-03T09:40:01;100488.09;;;31.74;74.30
54808;BME280;40708;50.364;7.550;2022-07-03T09:42:27;100485.22;;;31.55;70.27
54808;BME280;40708;50.364;7.550;2022-07-03T09:44:53;100487.19;;;31.53;74.40
54808;BME280;40708;50.364;7.550;2022-07-03T09:47:23;100492.59;;;31.44;73.59
54808;BME280;40708;50.364;7.550;2022-07-03T09:49:56;100491.34;;;31.48;65.64
54808;BME280;40708;50.364;7.550;2022-07-03T09:52:34;100482.25;;;32.30;64.20
54808;BME280;40708;50.364;7.550;2022-07-03T10:00:19;100490.69;;;31.12;70.46
54808;BME280;40708;50.364;7.550;2022-07-03T10:03:02;100492.97;;;30.63;68.81
54808;BME280;40708;50.364;7.550;2022-07-03T10:10:28;100475.88;;;31.04;71.30
54808;BME280;40708;50.364;7.550;2022-07-03T10:12:55;100481.91;;;30.42;75.88
54808;BME280;40708;50.364;7.550;2022-07-03T10:15:21;100481.50;;;29.68;85.00
54808;BME280;40708;50.364;7.550;2022-07-03T10:17:49;100489.53;;;29.58;86.34
54808;BME280;40708;50.364;7.550;2022-07-03T10:20:15;100484.91;;;29.47;86.17
54808;BME280;40708;50.364;7.550;2022-07-03T10:22:45;100485.69;;;29.26;88.84
54808;BME280;40708;50.364;7.550;2022-07-03T10:25:13;100479.16;;;29.16;87.09
54808;BME280;40708;50.364;7.550;2022-07-03T10:27:39;100488.97;;;28.82;89.82
54808;BME280;40708;50.364;7.550;2022-07-03T10:30:05;100484.19;;;29.09;90.16
54808;BME280;40708;50.364;7.550;2022-07-03T10:32:32;100480.56;;;29.80;82.25
54808;BME280;40708;50.364;7.550;2022-07-03T10:34:58;100482.84;;;29.15;82.74
54808;BME280;40708;50.364;7.550;2022-07-03T10:37:29;100473.88;;;29.84;79.41
54808;BME280;40708;50.364;7.550;2022-07-03T10:40:08;100465.59;;;30.63;76.99
54808;BME280;40708;50.364;7.550;2022-07-03T10:43:00;100472.16;;;31.05;72.13
54808;BME280;40708;50.364;7.550;2022-07-03T10:46:10;100472.25;;;31.14;74.98
54808;BME280;40708;50.364;7.550;2022-07-03T10:51:20;100463.97;;;30.72;71.23
54808;BME280;40708;50.364;7.550;2022-07-03T10:53:46;100463.25;;;30.58;72.94
54808;BME280;40708;50.364;7.550;2022-07-03T10:56:12;100454.53;;;30.42;71.79
54808;BME280;40708;50.364;7.550;2022-07-03T10:58:57;100458.13;;;29.64;78.17
54808;BME280;40708;50.364;7.550;2022-07-03T11:01:29;100451.19;;;29.36;80.42
54808;BME280;40708;50.364;7.550;2022-07-03T11:03:59;100455.31;;;29.41;77.27
54808;BME280;40708;50.364;7.550;2022-07-03T11:09:13;100450.16;;;29.61;78.39
54808;BME280;40708;50.364;7.550;2022-07-03T11:11:46;100453.59;;;29.51;77.51
54808;BME280;40708;50.364;7.550;2022-07-03T11:14:22;100453.13;;;29.58;77.27
54808;BME280;40708;50.364;7.550;2022-07-03T11:16:48;100448.19;;;30.08;74.44
54808;BME280;40708;50.364;7.550;2022-07-03T11:19:25;100454.72;;;29.84;80.22
54808;BME280;40708;50.364;7.550;2022-07-03T11:21:55;100449.28;;;29.95;75.28
54808;BME280;40708;50.364;7.550;2022-07-03T11:24:35;100447.31;;;30.08;73.28
54808;BME280;40708;50.364;7.550;2022-07-03T11:27:33;100446.69;;;30.16;74.28
54808;BME280;40708;50.364;7.550;2022-07-03T11:29:59;100447.06;;;30.22;71.54
54808;BME280;40708;50.364;7.550;2022-07-03T11:35:46;100443.53;;;29.98;77.34
54808;BME280;40708;50.364;7.550;2022-07-03T11:38:36;100437.97;;;29.99;75.75
54808;BME280;40708;50.364;7.550;2022-07-03T11:41:01;100431.25;;;30.26;74.05
54808;BME280;40708;50.364;7.550;2022-07-03T11:43:27;100432.38;;;30.23;73.51
54808;BME280;40708;50.364;7.550;2022-07-03T11:45:53;100429.13;;;30.29;73.25
54808;BME280;40708;50.364;7.550;2022-07-03T11:48:20;100428.53;;;30.59;72.55
54808;BME280;40708;50.364;7.550;2022-07-03T11:50:47;100423.88;;;30.93;70.87
54808;BME280;40708;50.364;7.550;2022-07-03T11:53:30;100418.22;;;30.51;61.29
54808;BME280;40708;50.364;7.550;2022-07-03T11:56:05;100409.34;;;30.59;60.10
54808;BME280;40708;50.364;7.550;2022-07-03T12:01:11;100403.41;;;30.43;56.85
54808;BME280;40708;50.364;7.550;2022-07-03T12:03:37;100400.25;;;30.70;56.52
54808;BME280;40708;50.364;7.550;2022-07-03T12:06:02;100405.91;;;31.00;56.00
54808;BME280;40708;50.364;7.550;2022-07-03T12:08:30;100396.72;;;31.21;53.02
54808;BME280;40708;50.364;7.550;2022-07-03T12:10:58;100400.66;;;31.60;49.97
54808;BME280;40708;50.364;7.550;2022-07-03T12:13:24;100397.06;;;32.11;48.73
54808;BME280;40708;50.364;7.550;2022-07-03T12:15:50;100400.97;;;31.88;41.22
54808;BME280;40708;50.364;7.550;2022-07-03T12:18:16;100400.38;;;31.84;44.03
54808;BME280;40708;50.364;7.550;2022-07-03T12:20:41;100392.97;;;31.54;41.25
54808;BME280;40708;50.364;7.550;2022-07-03T12:23:07;100386.91;;;31.19;44.09
54808;BME280;40708;50.364;7.550;2022-07-03T12:25:40;100385.66;;;31.44;43.36
54808;BME280;40708;50.364;7.550;2022-07-03T12:28:08;100392.13;;;31.43;45.66
54808;BME280;40708;50.364;7.550;2022-07-03T12:30:34;100396.44;;;31.77;44.68
54808;BME280;40708;50.364;7.550;2022-07-03T12:33:01;100390.47;;;31.93;37.97
54808;BME280;40708;50.364;7.550;2022-07-03T12:35:27;100374.00;;;31.93;37.57
54808;BME280;40708;50.364;7.550;2022-07-03T12:37:53;100381.66;;;32.19;40.26
54808;BME280;40708;50.364;7.550;2022-07-03T12:40:19;100374.00;;;31.72;39.58
54808;BME280;40708;50.364;7.550;2022-07-03T12:42:46;100380.28;;;31.83;41.13
54808;BME280;40708;50.364;7.550;2022-07-03T12:45:13;100374.19;;;31.18;41.11
54808;BME280;40708;50.364;7.550;2022-07-03T12:47:39;100371.06;;;31.64;38.96
54808;BME280;40708;50.364;7.550;2022-07-03T12:50:06;100371.88;;;31.75;39.90
54808;BME280;40708;50.364;7.550;2022-07-03T12:52:34;100371.66;;;32.09;39.22
54808;BME280;40708;50.364;7.550;2022-07-03T12:55:24;100372.09;;;31.63;39.90
54808;BME280;40708;50.364;7.550;2022-07-03T12:57:50;100372.28;;;31.50;39.16
54808;BME280;40708;50.364;7.550;2022-07-03T13:00:43;100373.28;;;30.86;40.70
54808;BME280;40708;50.364;7.550;2022-07-03T13:03:09;100369.66;;;30.96;42.65
54808;BME280;40708;50.364;7.550;2022-07-03T13:05:50;100365.69;;;31.00;45.14
54808;BME280;40708;50.364;7.550;2022-07-03T13:08:15;100362.75;;;31.13;40.23
54808;BME280;40708;50.364;7.550;2022-07-03T13:10:41;100376.94;;;30.75;42.85
54808;BME280;40708;50.364;7.550;2022-07-03T13:13:06;100350.34;;;31.09;43.01
54808;BME280;40708;50.364;7.550;2022-07-03T13:15:32;100383.50;;;31.27;45.26
54808;BME280;40708;50.364;7.550;2022-07-03T13:17:59;100379.84;;;31.05;45.35
54808;BME280;40708;50.364;7.550;2022-07-03T13:20:31;100377.94;;;31.38;43.56
54808;BME280;40708;50.364;7.550;2022-07-03T13:23:01;100368.59;;;31.61;42.46
54808;BME280;40708;50.364;7.550;2022-07-03T13:25:28;100363.53;;;31.56;41.40
54808;BME280;40708;50.364;7.550;2022-07-03T13:28:09;100359.25;;;31.63;41.77
54808;BME280;40708;50.364;7.550;2022-07-03T13:30:35;100362.19;;;31.71;44.42
54808;BME280;40708;50.364;7.550;2022-07-03T13:33:02;100364.34;;;31.47;45.03
54808;BME280;40708;50.364;7.550;2022-07-03T13:35:28;100363.47;;;31.47;45.06
54808;BME280;40708;50.364;7.550;2022-07-03T13:37:53;100357.56;;;31.72;44.13
54808;BME280;40708;50.364;7.550;2022-07-03T13:40:18;100353.75;;;31.43;45.41
54808;BME280;40708;50.364;7.550;2022-07-03T13:42:44;100357.94;;;31.05;45.28